Tk Rotterdam — A8RG8 — position and weather

sailwx.info

Track history (hours):
 
Tides and Currents Weather Stations Pressure Air Temp Water Temp Dewpoint Dewpoint Depression Visibility Wind Speed Wind Dir Waves Ship Positions

Tk Rotterdam

Last reported at 2015-Mar-25 18:27 UTC. Time now 2015-Mar-31 06:44 UTC.
Position N 44°29' E 037°02'.

Length 130 m; draft 4.8 m.

Type: Cargo ship. MMSI: 636014098.

Date/timePositionNaut miles runAvg speedWind from/ knotsBaromVisibWave heightAir tempDewpointWater temp
2015-Mar-25 18:27N 44°29' E 037°02'1310.8
2015-Mar-25 17:15N 44°19' E 037°14'3210.7
2015-Mar-25 14:17N 43°54' E 037°42'  
2015-Mar-17 22:33N 44°17' E 034°41'8 8.4
2015-Mar-17 21:33N 44°16' E 034°29'9 8.6
2015-Mar-17 20:32N 44°16' E 034°17'8 8.5
2015-Mar-17 19:33N 44°16' E 034°05'47 7.8
2015-Mar-17 13:32N 44°40' E 033°08'9 9.1
2015-Mar-17 12:33N 44°47' E 033°02'124 6.2
2015-Mar-16 16:32N 46°35' E 031°32'9 9.0
2015-Mar-16 15:33N 46°36' E 031°45'9 8.6
2015-Mar-16 14:33N 46°40' E 031°56'8 8.5
2015-Mar-16 13:33N 46°48' E 031°53'9 9.4
2015-Mar-16 12:33N 46°55' E 032°01'1 1.3
2015-Mar-16 11:32N 46°57' E 032°01'0 0.0
2015-Mar-16 10:31N 46°57' E 032°01'0 0.0
2015-Mar-16 09:31N 46°57' E 032°01'0 0.0
2015-Mar-16 08:31N 46°57' E 032°01'0 0.0
2015-Mar-16 07:33N 46°57' E 032°01'0 0.0
2015-Mar-16 06:33N 46°57' E 032°01'0 0.0
2015-Mar-16 05:32N 46°57' E 032°01'0 0.0
2015-Mar-16 04:32N 46°57' E 032°01'0 0.0
2015-Mar-16 03:31N 46°57' E 032°01'0 0.0
2015-Mar-16 02:33N 46°57' E 032°01'0 0.0
2015-Mar-16 01:30N 46°57' E 032°01'0 0.0
2015-Mar-16 00:32N 46°57' E 032°01'0 0.0
2015-Mar-15 23:22N 46°57' E 032°01'0 0.0
2015-Mar-15 22:28N 46°57' E 032°01'0 0.0
2015-Mar-15 19:26N 46°57' E 032°01'0 0.0
2015-Mar-15 18:31N 46°57' E 032°01'  
Track history (hours):
 
Tides and Currents Weather Stations Pressure Air Temp Water Temp Dewpoint Dewpoint Depression Visibility Wind Speed Wind Dir Waves Ship Positions

Tk Rotterdam

Last reported at 2015-Mar-25 18:27 UTC. Time now 2015-Mar-31 06:44 UTC.
Position N 44°29' E 037°02'.

Length 130 m; draft 4.8 m.

Type: Cargo ship. MMSI: 636014098.

Date/timePositionNaut miles runAvg speedWind from/ knotsBaromVisibWave heightAir tempDewpointWater temp
2015-Mar-25 18:27N 44°29' E 037°02'1310.8
2015-Mar-25 17:15N 44°19' E 037°14'3210.7
2015-Mar-25 14:17N 43°54' E 037°42'  
2015-Mar-17 22:33N 44°17' E 034°41'8 8.4
2015-Mar-17 21:33N 44°16' E 034°29'9 8.6
2015-Mar-17 20:32N 44°16' E 034°17'8 8.5
2015-Mar-17 19:33N 44°16' E 034°05'47 7.8
2015-Mar-17 13:32N 44°40' E 033°08'9 9.1
2015-Mar-17 12:33N 44°47' E 033°02'124 6.2
2015-Mar-16 16:32N 46°35' E 031°32'9 9.0
2015-Mar-16 15:33N 46°36' E 031°45'9 8.6
2015-Mar-16 14:33N 46°40' E 031°56'8 8.5
2015-Mar-16 13:33N 46°48' E 031°53'9 9.4
2015-Mar-16 12:33N 46°55' E 032°01'1 1.3
2015-Mar-16 11:32N 46°57' E 032°01'0 0.0
2015-Mar-16 10:31N 46°57' E 032°01'0 0.0
2015-Mar-16 09:31N 46°57' E 032°01'0 0.0
2015-Mar-16 08:31N 46°57' E 032°01'0 0.0
2015-Mar-16 07:33N 46°57' E 032°01'0 0.0
2015-Mar-16 06:33N 46°57' E 032°01'0 0.0
2015-Mar-16 05:32N 46°57' E 032°01'0 0.0
2015-Mar-16 04:32N 46°57' E 032°01'0 0.0
2015-Mar-16 03:31N 46°57' E 032°01'0 0.0
2015-Mar-16 02:33N 46°57' E 032°01'0 0.0
2015-Mar-16 01:30N 46°57' E 032°01'0 0.0
2015-Mar-16 00:32N 46°57' E 032°01'0 0.0
2015-Mar-15 23:22N 46°57' E 032°01'0 0.0
2015-Mar-15 22:28N 46°57' E 032°01'0 0.0
2015-Mar-15 19:26N 46°57' E 032°01'0 0.0
2015-Mar-15 18:31N 46°57' E 032°01'  

Dump ship's entire track history